LFPM 171330Z AUTO 27004KT 190V350 CAVOK 26/13 Q1021

Les avions qui composent notre flotte

Beechcraft 33 Bonanza

Le haut de gamme de l'aviation légère
IFR, Pas variable, Train rentrant

F-BRIZ


F-BRIZ Planche